Time;durP1;ratioP1;P1;durP2;ratioP2;P2;SDS_P1;SDS_P2;PMS_P1;PMS_P2;Temp;Humidity;BMP_temperature;BMP_pressure;BME280_temperature;BME280_humidity;BME280_pressure;Samples;Min_cycle;Max_cycle;Signal;HPM_P1;HPM_P2
2021/12/12 00:01:30;;;;;;;9.90;7.35;;;;;;;6.40;100.00;99969.28;1728751;82;21031;-64
2021/12/12 00:04:10;;;;;;;8.03;6.87;;;;;;;6.42;100.00;99973.08;1729749;82;21015;-63
2021/12/12 00:06:32;;;;;;;9.18;7.40;;;;;;;6.41;100.00;99968.20;1747101;82;21034;-63
2021/12/12 00:09:07;;;;;;;8.88;6.60;;;;;;;6.41;100.00;99979.02;1746521;82;20987;-63
2021/12/12 00:11:35;;;;;;;10.60;7.63;;;;;;;6.41;100.00;99991.19;1726123;82;21133;-64
2021/12/12 00:14:19;;;;;;;8.20;7.12;;;;;;;6.38;100.00;99982.72;1746313;82;21097;-63
2021/12/12 00:16:46;;;;;;;10.20;8.08;;;;;;;6.33;100.00;99988.87;1746583;82;21046;-64
2021/12/12 00:19:12;;;;;;;9.63;8.18;;;;;;;6.33;100.00;99992.09;1731604;82;21011;-62
2021/12/12 00:21:42;;;;;;;10.95;8.15;;;;;;;6.35;100.00;99990.80;1735663;82;21472;-63
2021/12/12 00:24:11;;;;;;;10.72;7.97;;;;;;;6.36;100.00;99997.86;1735424;82;21015;-64
2021/12/12 00:26:38;;;;;;;11.38;8.48;;;;;;;6.40;100.00;100004.95;1732653;82;21550;-63
2021/12/12 00:29:05;;;;;;;10.48;8.08;;;;;;;6.39;100.00;100005.48;1727827;82;21031;-64
2021/12/12 00:31:33;;;;;;;10.38;8.78;;;;;;;6.35;100.00;100007.02;1734140;82;21050;-63
2021/12/12 00:34:00;;;;;;;11.80;9.45;;;;;;;6.30;100.00;100004.75;1744387;82;21471;-64
2021/12/12 00:36:27;;;;;;;10.78;8.80;;;;;;;6.30;100.00;99998.81;1737263;81;21003;-63
2021/12/12 00:39:00;;;;;;;10.35;8.23;;;;;;;6.34;100.00;100005.36;1719096;82;20980;-63
2021/12/12 00:41:53;;;;;;;11.88;9.35;;;;;;;6.37;100.00;100012.20;1725095;82;21024;-63
2021/12/12 00:44:19;;;;;;;11.15;9.50;;;;;;;6.33;100.00;100014.56;1718994;82;21051;-64
2021/12/12 00:46:46;;;;;;;10.65;9.20;;;;;;;6.26;100.00;100015.21;1732152;82;21515;-63
2021/12/12 00:49:12;;;;;;;12.43;9.50;;;;;;;6.21;100.00;100022.37;1732367;82;21007;-63
2021/12/12 00:51:41;;;;;;;;;;;;;;;6.21;100.00;100010.20;1666534;84;21051;-63
2021/12/12 00:54:08;;;;;;;11.30;8.98;;;;;;;6.24;100.00;100008.38;1723876;82;20115;-64
2021/12/12 00:56:34;;;;;;;10.53;8.68;;;;;;;6.21;100.00;100002.09;1718513;82;21067;-63
2021/12/12 00:59:03;;;;;;;12.13;9.33;;;;;;;6.18;100.00;99995.29;1736879;82;21597;-64
2021/12/12 01:01:42;;;;;;;13.50;10.00;;;;;;;6.13;100.00;100005.18;1736855;82;21628;-63
2021/12/12 01:04:26;;;;;;;11.35;8.90;;;;;;;6.12;100.00;100014.34;1735115;82;21026;-63
2021/12/12 01:06:54;;;;;;;11.30;8.68;;;;;;;6.12;100.00;100012.98;1722710;82;21032;-63
2021/12/12 01:09:27;;;;;;;13.60;10.03;;;;;;;6.12;100.00;100024.63;1729169;82;21035;-63
2021/12/12 01:11:56;;;;;;;11.22;9.20;;;;;;;6.11;100.00;100017.56;1737005;81;21049;-64
2021/12/12 01:14:28;;;;;;;11.25;9.83;;;;;;;6.09;100.00;100014.81;1737045;82;21012;-64
2021/12/12 01:17:00;;;;;;;12.45;10.05;;;;;;;6.05;100.00;100019.04;1711901;82;21095;-64
2021/12/12 01:19:33;;;;;;;10.93;9.30;;;;;;;6.05;100.00;100025.27;1711646;82;20992;-64
2021/12/12 01:22:05;;;;;;;10.68;8.88;;;;;;;6.10;100.00;100035.36;1729058;82;21100;-63
2021/12/12 01:24:38;;;;;;;13.53;9.60;;;;;;;6.11;100.00;100035.13;1715850;82;20992;-63
2021/12/12 01:27:06;;;;;;;14.55;10.25;;;;;;;6.15;100.00;100040.89;1735677;81;21079;-64
2021/12/12 01:29:33;;;;;;;17.52;12.43;;;;;;;6.16;100.00;100036.61;1724136;82;20999;-64
2021/12/12 01:32:02;;;;;;;15.20;11.53;;;;;;;6.13;100.00;100041.67;1736872;82;21107;-64
2021/12/12 01:34:31;;;;;;;15.68;12.03;;;;;;;6.13;100.00;100037.06;1711470;82;21076;-64
2021/12/12 01:37:22;;;;;;;14.70;11.95;;;;;;;6.18;100.00;100045.82;1743116;82;21055;-63
2021/12/12 01:39:44;;;;;;;18.80;12.20;;;;;;;6.20;100.00;100037.77;1744612;82;21023;-63
2021/12/12 01:42:35;;;;;;;15.70;11.50;;;;;;;6.19;100.00;100041.55;1730635;81;21058;-64
2021/12/12 01:45:24;;;;;;;14.20;11.95;;;;;;;6.20;100.00;100039.67;1730963;82;21038;-64
2021/12/12 01:48:05;;;;;;;14.60;11.88;;;;;;;6.17;100.00;100045.00;1740349;82;21156;-63
2021/12/12 01:50:45;;;;;;;17.30;12.37;;;;;;;6.10;100.00;100038.88;1725763;82;21101;-64
2021/12/12 01:53:14;;;;;;;15.95;12.00;;;;;;;6.12;100.00;100044.90;1747996;82;21509;-63
2021/12/12 01:55:59;;;;;;;15.80;11.75;;;;;;;6.16;100.00;100048.78;1751346;82;21039;-63
2021/12/12 01:58:27;;;;;;;15.00;11.30;;;;;;;6.18;100.00;100049.88;1730396;82;20968;-63
2021/12/12 02:01:02;;;;;;;15.72;11.65;;;;;;;6.20;100.00;100049.13;1733966;82;21054;-64
2021/12/12 02:03:32;;;;;;;15.90;12.33;;;;;;;6.20;100.00;100051.28;1738905;81;20983;-63
2021/12/12 02:06:00;;;;;;;17.10;11.68;;;;;;;6.22;100.00;100057.81;1732943;82;21525;-63
2021/12/12 02:08:27;;;;;;;14.23;12.37;;;;;;;6.17;100.00;100046.87;1739157;82;21458;-63
2021/12/12 02:11:05;;;;;;;16.27;12.07;;;;;;;6.18;100.00;100056.63;1739973;82;21549;-63
2021/12/12 02:13:34;;;;;;;15.83;12.03;;;;;;;6.22;100.00;100053.77;1732605;82;21023;-63
2021/12/12 02:16:01;;;;;;;16.80;12.60;;;;;;;6.25;100.00;100056.81;1747898;81;21019;-64
2021/12/12 02:18:33;;;;;;;15.68;12.20;;;;;;;6.28;100.00;100057.69;1753135;82;21035;-63
2021/12/12 02:21:17;;;;;;;15.78;12.58;;;;;;;6.31;100.00;100061.27;1725145;82;21055;-64
2021/12/12 02:37:07;;;;;;;19.75;14.45;;;;;;;6.28;100.00;100067.16;1738645;82;21098;-64
2021/12/12 02:39:34;;;;;;;17.45;13.45;;;;;;;6.30;100.00;100067.76;1744492;82;21018;-63
2021/12/12 02:42:03;;;;;;;;;;;;;;;6.35;100.00;100065.67;1755229;82;21049;-64
2021/12/12 02:44:33;;;;;;;18.27;13.78;;;;;;;6.39;100.00;100069.55;1733696;82;20136;-62
2021/12/12 02:47:08;;;;;;;19.35;13.68;;;;;;;6.34;100.00;100070.26;1727975;82;21113;-63
2021/12/12 02:50:41;;;;;;;18.95;14.30;;;;;;;6.42;100.00;100069.08;1801351;78;22508;-63
2021/12/12 02:53:36;;;;;;;17.55;13.10;;;;;;;6.35;100.00;100067.86;1723423;81;21121;-64
2021/12/12 02:56:10;;;;;;;18.10;13.60;;;;;;;6.36;100.00;100069.51;1722655;82;21000;-64
2021/12/12 02:58:37;;;;;;;16.42;12.05;;;;;;;6.39;100.00;100073.61;1741097;82;21031;-64
2021/12/12 03:01:12;;;;;;;16.17;12.40;;;;;;;6.41;100.00;100066.90;1726842;82;21015;-64
2021/12/12 03:03:42;;;;;;;17.15;12.55;;;;;;;6.44;100.00;100066.98;1749901;82;21062;-64
2021/12/12 03:06:10;;;;;;;15.00;11.55;;;;;;;6.47;100.00;100067.86;1748899;82;21063;-64
2021/12/12 03:08:38;;;;;;;14.78;11.48;;;;;;;6.49;100.00;100072.48;1726484;81;21094;-64
2021/12/12 03:11:04;;;;;;;15.10;11.57;;;;;;;6.50;100.00;100079.02;1719980;83;21449;-64
2021/12/12 03:13:31;;;;;;;15.32;11.53;;;;;;;6.48;100.00;100073.56;1717197;82;21074;-64
2021/12/12 03:15:57;;;;;;;;;;;;;;;6.52;100.00;100076.62;1747517;82;21035;-65
2021/12/12 03:18:31;;;;;;;14.85;10.98;;;;;;;6.55;100.00;100080.20;1742368;81;20174;-64
2021/12/12 03:21:02;;;;;;;13.85;10.65;;;;;;;6.54;100.00;100089.36;1734029;82;21031;-64
2021/12/12 03:23:34;;;;;;;12.98;10.38;;;;;;;6.56;100.00;100089.41;1726068;82;21727;-64
2021/12/12 03:26:05;;;;;;;15.35;10.98;;;;;;;6.59;100.00;100082.17;1735275;82;20998;-64
2021/12/12 03:28:35;;;;;;;15.65;11.00;;;;;;;6.63;100.00;100086.05;1749825;82;21062;-64
2021/12/12 03:31:06;;;;;;;15.10;11.50;;;;;;;6.65;100.00;100086.65;1726037;82;20979;-64
2021/12/12 03:33:32;;;;;;;15.43;11.38;;;;;;;6.63;100.00;100102.80;1737127;82;21030;-64
2021/12/12 03:36:01;;;;;;;14.85;11.25;;;;;;;6.65;100.00;100099.34;1733061;82;20971;-64
2021/12/12 03:38:29;;;;;;;13.88;10.78;;;;;;;6.68;100.00;100101.58;1726345;82;21019;-64
2021/12/12 03:40:58;;;;;;;13.65;10.20;;;;;;;6.70;100.00;100102.15;1700109;83;20972;-64
2021/12/12 03:43:26;;;;;;;13.50;10.35;;;;;;;6.71;100.00;100097.86;1725999;82;21010;-65
2021/12/12 03:45:53;;;;;;;13.72;10.80;;;;;;;6.73;100.00;100098.99;1743641;82;21030;-64
2021/12/12 03:48:24;;;;;;;15.03;11.22;;;;;;;6.73;100.00;100094.37;1735723;82;21039;-64
2021/12/12 03:50:53;;;;;;;13.32;10.40;;;;;;;6.69;100.00;100091.88;1741636;82;20999;-64
2021/12/12 03:53:19;;;;;;;14.15;10.53;;;;;;;6.68;100.00;100096.16;1726311;82;21491;-61
2021/12/12 03:55:47;;;;;;;15.40;11.22;;;;;;;6.72;100.00;100105.45;1738667;82;21062;-62
2021/12/12 03:58:15;;;;;;;12.70;10.38;;;;;;;6.74;100.00;100097.91;1733734;82;20995;-62
2021/12/12 04:00:46;;;;;;;13.95;10.93;;;;;;;6.75;100.00;100104.45;1735530;82;21556;-62
2021/12/12 04:03:13;;;;;;;14.23;10.70;;;;;;;6.75;100.00;100103.62;1728930;82;21003;-62
2021/12/12 04:05:39;;;;;;;15.13;12.03;;;;;;;6.75;100.00;100100.92;1740782;82;21023;-61
2021/12/12 04:08:06;;;;;;;16.17;12.85;;;;;;;6.76;100.00;100097.16;1734520;82;21110;-63
2021/12/12 04:10:32;;;;;;;;;;;;;;;6.77;100.00;100090.66;1736901;82;21028;-61
2021/12/12 04:12:59;;;;;;;21.50;14.00;;;;;;;6.76;100.00;100091.75;1732197;82;20404;-62
2021/12/12 04:15:25;;;;;;;;;;;;;;;6.64;100.00;100092.28;1737795;82;21038;-62
2021/12/12 04:17:52;;;;;;;18.70;12.53;;;;;;;6.66;100.00;100101.00;1730712;82;20118;-62
2021/12/12 04:20:23;;;;;;;25.25;16.12;;;;;;;6.65;100.00;100108.29;1735058;82;21137;-61
2021/12/12 04:22:50;;;;;;;22.55;14.15;;;;;;;6.69;100.00;100102.70;1741033;82;21373;-64
2021/12/12 04:25:16;;;;;;;16.73;10.45;;;;;;;6.71;100.00;100093.80;1730102;82;21450;-64
2021/12/12 04:27:43;;;;;;;;;;;;;;;6.72;100.00;100101.40;1742870;82;21039;-64
2021/12/12 04:30:11;;;;;;;21.02;13.53;;;;;;;6.67;100.00;100102.10;1745932;82;20127;-64
2021/12/12 04:32:37;;;;;;;19.37;12.82;;;;;;;6.64;100.00;100097.17;1722446;83;21066;-64
2021/12/12 04:35:10;;;;;;;;;;;;;;;6.66;100.00;100101.00;1731129;82;21067;-64
2021/12/12 04:37:36;;;;;;;22.42;13.25;;;;;;;6.69;100.00;100100.00;1751185;81;20404;-64
2021/12/12 04:40:04;;;;;;;;;;;;;;;6.64;100.00;100104.45;1752598;82;21059;-64
2021/12/12 04:42:33;;;;;;;28.23;18.25;;;;;;;6.67;100.00;100098.56;1724200;82;20157;-64
2021/12/12 04:45:11;;;;;;;33.78;19.92;;;;;;;6.61;100.00;100108.99;1725310;82;21046;-64
2021/12/12 04:50:53;;;;;;;23.10;14.93;;;;;;;6.58;100.00;100104.89;1676481;85;21082;-63
2021/12/12 04:53:25;;;;;;;22.42;15.38;;;;;;;6.62;100.00;100108.77;1688216;84;21830;-64
2021/12/12 04:56:28;;;;;;;20.77;13.83;;;;;;;6.65;100.00;100104.23;1684604;84;21589;-64
2021/12/12 04:59:20;;;;;;;21.00;13.70;;;;;;;6.68;100.00;100101.05;1688415;84;21059;-64
2021/12/12 05:02:11;;;;;;;22.40;14.70;;;;;;;6.72;100.00;100101.40;1692222;84;21696;-63
2021/12/12 05:04:49;;;;;;;17.57;13.15;;;;;;;6.71;100.00;100101.92;1693613;84;21007;-62
2021/12/12 05:07:26;;;;;;;21.80;13.55;;;;;;;6.68;100.00;100106.46;1675609;85;21027;-62
2021/12/12 05:10:01;;;;;;;16.15;11.75;;;;;;;6.65;100.00;100108.29;1648820;85;21109;-62
2021/12/12 05:12:47;;;;;;;18.70;12.37;;;;;;;6.64;100.00;100103.94;1682860;84;21027;-62
2021/12/12 05:15:25;;;;;;;18.90;12.98;;;;;;;6.67;100.00;100104.81;1661997;86;21043;-62
2021/12/12 05:17:59;;;;;;;19.80;13.08;;;;;;;6.70;100.00;100103.50;1679538;84;21644;-62
2021/12/12 05:20:32;;;;;;;18.48;12.45;;;;;;;6.73;100.00;100109.81;1688740;84;21062;-63
2021/12/12 05:23:04;;;;;;;20.85;12.98;;;;;;;6.75;100.00;100113.92;1681208;84;21613;-62
2021/12/12 05:25:41;;;;;;;20.35;13.70;;;;;;;6.76;100.00;100112.88;1677989;84;21082;-62
2021/12/12 05:28:09;;;;;;;25.35;14.30;;;;;;;6.78;100.00;100119.38;1647624;84;21565;-62
2021/12/12 05:30:36;;;;;;;;;;;;;;;6.74;100.00;100128.50;1693317;84;21074;-62
2021/12/12 05:33:03;;;;;;;16.67;12.15;;;;;;;6.72;100.00;100123.87;1674958;84;20149;-63
2021/12/12 05:35:34;;;;;;;21.95;12.93;;;;;;;6.69;100.00;100117.58;1674861;84;21095;-63
2021/12/12 05:38:01;;;;;;;18.92;12.70;;;;;;;6.69;100.00;100117.58;1691149;84;21691;-63
2021/12/12 05:40:30;;;;;;;16.00;11.70;;;;;;;6.69;100.00;100116.23;1678771;84;21513;-62
2021/12/12 05:42:59;;;;;;;13.20;9.98;;;;;;;6.70;100.00;100118.37;1689761;84;21142;-63
2021/12/12 05:45:30;;;;;;;15.25;11.03;;;;;;;6.71;100.00;100115.98;1675829;84;21082;-63
2021/12/12 05:47:57;;;;;;;16.37;11.95;;;;;;;6.71;100.00;100113.27;1688193;84;21110;-63
2021/12/12 05:50:23;;;;;;;;;;;;;;;6.70;100.00;100117.03;1682764;84;21062;-63
2021/12/12 05:52:54;;;;;;;22.70;13.65;;;;;;;6.70;100.00;100126.50;1677247;84;20148;-62
2021/12/12 05:55:18;;;;;;;20.25;13.53;;;;;;;6.67;100.00;100125.63;1674217;85;21034;-63
2021/12/12 05:57:48;;;;;;;17.10;12.60;;;;;;;6.69;100.00;100131.11;1678584;84;21066;-63
2021/12/12 06:00:16;;;;;;;18.50;12.33;;;;;;;6.73;100.00;100139.58;1664754;85;21047;-62
2021/12/12 06:02:43;;;;;;;17.70;12.82;;;;;;;6.71;100.00;100143.86;1710258;84;21891;-62
2021/12/12 06:05:09;;;;;;;17.90;13.20;;;;;;;6.66;100.00;100153.20;1698948;84;21046;-62
2021/12/12 06:07:36;;;;;;;18.07;13.72;;;;;;;6.69;100.00;100155.46;1666389;85;21062;-62
2021/12/12 06:10:07;;;;;;;20.08;13.88;;;;;;;6.71;100.00;100157.39;1671446;85;21581;-63
2021/12/12 06:12:34;;;;;;;20.37;13.85;;;;;;;6.74;100.00;100164.20;1677487;83;21547;-62
2021/12/12 06:15:11;;;;;;;17.82;12.95;;;;;;;6.73;100.00;100169.34;1678957;84;21572;-62
2021/12/12 06:17:38;;;;;;;22.52;15.68;;;;;;;6.75;100.00;100171.27;1692673;84;21085;-62
2021/12/12 06:20:07;;;;;;;19.98;14.53;;;;;;;6.74;100.00;100170.44;1687291;84;21042;-63
2021/12/12 06:22:34;;;;;;;27.35;16.17;;;;;;;6.76;100.00;100177.80;1695528;84;21585;-63
2021/12/12 06:25:00;;;;;;;;;;;;;;;6.72;100.00;100174.45;1679554;84;21070;-62
2021/12/12 06:27:29;;;;;;;24.80;15.20;;;;;;;6.69;100.00;100176.28;1681466;84;20165;-63
2021/12/12 06:29:55;;;;;;;19.45;14.90;;;;;;;6.62;100.00;100177.75;1686527;84;21591;-62
2021/12/12 06:32:22;;;;;;;25.05;17.82;;;;;;;6.62;100.00;100172.87;1696671;84;21086;-62
2021/12/12 06:34:49;;;;;;;20.95;14.40;;;;;;;6.58;100.00;100177.92;1703324;84;21097;-62
2021/12/12 06:37:16;;;;;;;22.65;14.25;;;;;;;6.57;100.00;100183.55;1706310;84;21054;-62
2021/12/12 06:39:43;;;;;;;;;;;;;;;6.53;100.00;100186.43;1698364;84;20986;-62
2021/12/12 06:42:10;;;;;;;25.15;15.93;;;;;;;6.45;100.00;100174.90;1710199;84;20109;-63
2021/12/12 06:44:38;;;;;;;;;;;;;;;6.40;100.00;100184.27;1708717;84;21041;-62
2021/12/12 06:47:04;;;;;;;;;;;;;;;6.36;100.00;100182.25;1692577;84;20541;-63
2021/12/12 06:49:30;;;;;;;23.85;16.27;;;;;;;6.30;100.00;100184.02;1695055;83;20198;-61
2021/12/12 06:51:59;;;;;;;21.15;13.25;;;;;;;6.25;100.00;100187.94;1692409;84;21094;-62
2021/12/12 06:54:28;;;;;;;20.88;14.18;;;;;;;6.24;100.00;100186.28;1691479;84;20988;-63
2021/12/12 06:56:58;;;;;;;17.25;14.18;;;;;;;6.23;100.00;100195.99;1687884;84;21605;-64
2021/12/12 06:59:28;;;;;;;19.95;14.18;;;;;;;6.22;100.00;100189.76;1690832;84;21048;-62
2021/12/12 07:01:55;;;;;;;18.87;14.00;;;;;;;6.23;100.00;100191.41;1686147;84;21735;-62
2021/12/12 07:04:21;;;;;;;18.87;15.32;;;;;;;6.22;100.00;100194.34;1697627;84;21058;-63
2021/12/12 07:06:49;;;;;;;;;;;;;;;6.22;100.00;100197.05;1701222;84;21585;-63
2021/12/12 07:09:15;;;;;;;25.08;14.87;;;;;;;6.22;100.00;100195.69;1701396;84;20516;-63
2021/12/12 07:11:42;;;;;;;;;;;;;;;6.14;100.00;100188.73;1704027;84;21068;-63
2021/12/12 07:14:10;;;;;;;21.33;15.10;;;;;;;6.11;100.00;100214.05;1693081;84;20136;-63
2021/12/12 07:16:37;;;;;;;20.55;14.87;;;;;;;6.04;100.00;100205.22;1673421;86;21075;-63
2021/12/12 07:19:04;;;;;;;23.62;16.80;;;;;;;6.00;100.00;100218.37;1673647;86;21542;-63
2021/12/12 07:21:30;;;;;;;22.17;15.15;;;;;;;5.99;100.00;100207.25;1673419;86;21079;-64
2021/12/12 07:23:58;;;;;;;17.75;13.25;;;;;;;6.00;100.00;100208.39;1674226;84;21047;-63
2021/12/12 07:26:25;;;;;;;18.87;13.75;;;;;;;6.00;100.00;100208.39;1673311;86;21138;-63
2021/12/12 07:28:52;;;;;;;20.48;15.15;;;;;;;6.00;100.00;100206.20;1673689;86;21027;-63
2021/12/12 07:31:22;;;;;;;24.10;15.78;;;;;;;5.97;100.00;100208.85;1690447;83;21075;-62
2021/12/12 07:33:53;;;;;;;22.02;14.68;;;;;;;5.99;100.00;100201.84;1712267;83;20968;-63
2021/12/12 07:36:19;;;;;;;26.60;16.50;;;;;;;6.00;100.00;100202.16;1701819;84;21574;-63
2021/12/12 07:38:48;;;;;;;;;;;;;;;6.00;100.00;100210.27;1704341;84;21027;-63
2021/12/12 07:41:14;;;;;;;23.42;15.75;;;;;;;6.01;100.00;100210.56;1701710;84;20143;-62
2021/12/12 07:43:41;;;;;;;;;;;;;;;5.90;100.00;100213.53;1647722;86;21059;-63
2021/12/12 07:46:07;;;;;;;24.70;15.95;;;;;;;5.90;100.00;100217.58;1691979;84;20142;-63
2021/12/12 07:48:35;;;;;;;25.65;16.97;;;;;;;5.86;100.00;100223.14;1701872;84;21085;-62
2021/12/12 07:51:03;;;;;;;24.60;16.30;;;;;;;5.85;100.00;100224.67;1674296;84;21594;-63
2021/12/12 07:53:30;;;;;;;21.20;15.60;;;;;;;5.86;100.00;100220.44;1674068;84;21522;-63
2021/12/12 07:55:57;;;;;;;24.12;15.28;;;;;;;5.82;100.00;100219.73;1673470;86;21043;-63
2021/12/12 07:58:24;;;;;;;21.57;14.33;;;;;;;5.75;100.00;100228.45;1673961;86;21553;-63
2021/12/12 08:00:51;;;;;;;23.50;14.30;;;;;;;5.68;100.00;100235.30;1673950;84;21063;-63
2021/12/12 08:03:22;;;;;;;21.02;14.50;;;;;;;5.59;100.00;100223.17;1685661;84;20991;-65
2021/12/12 08:05:48;;;;;;;27.60;15.78;;;;;;;5.53;100.00;100231.64;1694155;84;21010;-62
2021/12/12 08:08:15;;;;;;;22.85;15.78;;;;;;;5.49;100.00;100228.30;1699289;84;21022;-63
2021/12/12 08:10:43;;;;;;;29.42;16.67;;;;;;;5.50;100.00;100230.75;1698312;84;20983;-63
2021/12/12 08:13:10;;;;;;;30.75;19.98;;;;;;;5.48;100.00;100232.87;1692157;84;21628;-63
2021/12/12 08:15:36;;;;;;;27.30;16.55;;;;;;;5.46;100.00;100233.59;1701759;84;21004;-64
2021/12/12 08:18:03;;;;;;;24.72;14.63;;;;;;;5.48;100.00;100227.47;1695464;84;21542;-64
2021/12/12 08:20:30;;;;;;;24.45;15.53;;;;;;;5.48;100.00;100236.92;1693603;84;21436;-63
2021/12/12 08:22:57;;;;;;;21.12;13.95;;;;;;;5.42;100.00;100233.75;1657938;85;21035;-63
2021/12/12 08:25:25;;;;;;;;;;;;;;;5.37;100.00;100241.72;1688091;83;21082;-63
2021/12/12 08:27:54;;;;;;;21.07;15.58;;;;;;;5.32;100.00;100240.73;1656941;86;20172;-64
2021/12/12 08:30:21;;;;;;;23.73;14.98;;;;;;;5.22;100.00;100245.31;1682802;84;21103;-63
2021/12/12 08:32:49;;;;;;;24.00;17.12;;;;;;;5.19;100.00;100249.81;1698432;84;21122;-63
2021/12/12 08:35:17;;;;;;;24.40;18.87;;;;;;;5.19;100.00;100253.03;1701689;84;21110;-63
2021/12/12 08:37:45;;;;;;;21.07;15.40;;;;;;;5.18;100.00;100257.59;1695362;84;21466;-64
2021/12/12 08:40:14;;;;;;;18.40;12.30;;;;;;;5.19;100.00;100261.13;1690790;84;21087;-63
2021/12/12 08:42:41;;;;;;;26.10;13.35;;;;;;;5.14;100.00;100261.80;1691884;84;21573;-63
2021/12/12 08:45:11;;;;;;;18.77;11.22;;;;;;;5.11;100.00;100251.97;1683918;84;21083;-63
2021/12/12 08:47:37;;;;;;;13.98;10.80;;;;;;;5.10;100.00;100240.89;1689445;84;21066;-63
2021/12/12 08:50:07;;;;;;;14.78;10.93;;;;;;;5.06;100.00;100246.44;1684814;84;21102;-63
2021/12/12 08:52:38;;;;;;;16.00;11.85;;;;;;;5.01;100.00;100255.19;1737324;82;21078;-63
2021/12/12 08:55:07;;;;;;;18.62;11.65;;;;;;;4.96;100.00;100253.67;1739180;82;21027;-63
2021/12/12 08:57:56;;;;;;;12.53;9.40;;;;;;;4.95;100.00;100260.14;1739035;82;21106;-62
2021/12/12 09:00:18;;;;;;;14.73;11.43;;;;;;;4.93;100.00;100259.00;1735544;82;21031;-63
2021/12/12 09:02:45;;;;;;;14.20;10.10;;;;;;;4.89;100.00;100261.83;1738893;82;21039;-62
2021/12/12 09:05:19;;;;;;;18.80;14.20;;;;;;;4.86;100.00;100254.19;1739327;82;21030;-62
2021/12/12 09:07:48;;;;;;;20.57;13.48;;;;;;;4.89;100.00;100251.56;1738949;82;21610;-63
2021/12/12 09:10:28;;;;;;;19.82;13.15;;;;;;;4.88;100.00;100253.46;1718374;82;21098;-62
2021/12/12 09:13:16;;;;;;;17.48;12.68;;;;;;;4.84;100.00;100246.86;1709587;84;21582;-62
2021/12/12 09:15:50;;;;;;;21.65;14.50;;;;;;;4.83;100.00;100251.94;1696104;83;21572;-62
2021/12/12 09:18:22;;;;;;;26.23;16.10;;;;;;;4.79;100.00;100260.17;1709543;84;21653;-62
2021/12/12 09:20:59;;;;;;;20.57;15.70;;;;;;;4.80;100.00;100256.95;1730096;82;21004;-63
2021/12/12 09:23:32;;;;;;;23.27;15.32;;;;;;;4.80;100.00;100254.25;1739585;82;20989;-62
2021/12/12 09:26:08;;;;;;;17.42;13.15;;;;;;;4.77;100.00;100246.61;1739443;82;21514;-62
2021/12/12 09:28:48;;;;;;;22.37;15.60;;;;;;;4.77;100.00;100238.52;1728786;82;21546;-62
2021/12/12 09:31:19;;;;;;;19.40;13.28;;;;;;;4.73;100.00;100249.44;1701877;84;21036;-63
2021/12/12 09:33:59;;;;;;;21.02;14.83;;;;;;;4.70;100.00;100251.23;1709940;84;21470;-62
2021/12/12 09:36:39;;;;;;;20.82;14.30;;;;;;;4.68;100.00;100249.27;1709745;84;21079;-62
2021/12/12 09:39:14;;;;;;;17.07;12.90;;;;;;;4.66;100.00;100247.33;1711749;82;21514;-61
2021/12/12 09:42:17;;;;;;;20.10;12.70;;;;;;;4.65;100.00;100247.02;1732776;82;21106;-62
2021/12/12 09:45:14;;;;;;;17.73;12.90;;;;;;;4.59;100.00;100247.91;1739174;82;21023;-62
2021/12/12 09:54:06;;;;;;;17.45;12.47;;;;;;;4.53;100.00;100247.73;1709776;84;21538;-62
2021/12/12 09:57:06;;;;;;;16.90;11.73;;;;;;;4.47;100.00;100231.61;1709653;84;21075;-62
2021/12/12 10:00:05;;;;;;;21.85;15.10;;;;;;;4.44;100.00;100234.23;1734300;82;21499;-62
2021/12/12 10:03:03;;;;;;;22.52;14.33;;;;;;;4.45;100.00;100240.45;1716575;82;21024;-62
2021/12/12 10:05:44;;;;;;;18.12;13.68;;;;;;;4.47;100.00;100235.66;1731952;82;20995;-61
2021/12/12 10:09:12;;;;;;;20.60;14.58;;;;;;;4.47;100.00;100243.74;1708489;83;21616;-62
2021/12/12 10:12:01;;;;;;;19.80;13.30;;;;;;;4.49;100.00;100234.41;1709640;83;21569;-61
2021/12/12 10:14:51;;;;;;;18.00;12.73;;;;;;;4.44;100.00;100246.37;1709889;84;21498;-62
2021/12/12 10:17:39;;;;;;;20.50;14.50;;;;;;;4.43;100.00;100254.14;1731381;82;21047;-61
2021/12/12 10:20:15;;;;;;;22.10;14.45;;;;;;;4.43;100.00;100249.27;1739299;82;21090;-62
2021/12/12 10:23:33;;;;;;;17.35;12.23;;;;;;;4.44;100.00;100246.88;1738991;82;21044;-62
2021/12/12 10:26:16;;;;;;;19.42;12.80;;;;;;;4.48;100.00;100245.41;1716015;82;21590;-62
2021/12/12 10:28:58;;;;;;;22.37;12.90;;;;;;;4.44;100.00;100233.41;1709728;84;21055;-61
2021/12/12 10:31:49;;;;;;;15.58;11.80;;;;;;;4.46;100.00;100232.68;1709711;84;21578;-61
2021/12/12 10:34:30;;;;;;;18.90;12.75;;;;;;;4.41;100.00;100230.64;1708278;84;20972;-61
2021/12/12 10:37:07;;;;;;;15.32;11.28;;;;;;;4.42;100.00;100231.47;1709453;84;21105;-61
2021/12/12 10:39:38;;;;;;;17.70;11.10;;;;;;;4.46;100.00;100227.29;1709912;84;21011;-61
2021/12/12 10:42:12;;;;;;;16.37;12.28;;;;;;;4.44;100.00;100224.80;1731428;82;21539;-61
2021/12/12 10:44:56;;;;;;;18.45;12.53;;;;;;;4.43;100.00;100218.27;1739011;82;21602;-61
2021/12/12 10:47:55;;;;;;;19.17;12.07;;;;;;;4.45;100.00;100226.98;1739105;82;21056;-61
2021/12/12 10:50:33;;;;;;;19.00;12.47;;;;;;;4.44;100.00;100219.41;1739336;81;21024;-61
2021/12/12 10:53:05;;;;;;;21.68;13.05;;;;;;;4.38;100.00;100216.77;1750150;81;21094;-61
2021/12/12 10:55:55;;;;;;;24.15;14.47;;;;;;;4.34;100.00;100212.86;1753296;82;21003;-62
2021/12/12 10:58:42;;;;;;;19.57;12.55;;;;;;;4.34;100.00;100217.73;1753342;82;21628;-64
2021/12/12 11:01:14;;;;;;;20.82;13.50;;;;;;;4.34;100.00;100214.20;1733021;82;21114;-64
2021/12/12 11:04:24;;;;;;;21.45;13.22;;;;;;;4.29;100.00;100211.33;1723475;83;20987;-63
2021/12/12 11:06:55;;;;;;;23.87;14.45;;;;;;;4.27;100.00;100208.05;1723128;83;21580;-62
2021/12/12 11:09:34;;;;;;;24.63;13.50;;;;;;;4.22;100.00;100201.12;1723359;83;21078;-62
2021/12/12 11:12:24;;;;;;;22.87;13.13;;;;;;;4.17;100.00;100207.71;1747530;82;21043;-62
2021/12/12 11:15:29;;;;;;;20.70;13.70;;;;;;;4.18;100.00;100199.39;1753413;82;20967;-62
2021/12/12 11:18:19;;;;;;;20.60;13.95;;;;;;;4.17;100.00;100209.06;1753302;82;21003;-63
2021/12/12 11:21:03;;;;;;;23.65;14.55;;;;;;;4.14;100.00;100200.90;1727579;82;21412;-63
2021/12/12 11:23:43;;;;;;;25.90;16.40;;;;;;;4.13;100.00;100202.45;1723669;83;21467;-63
2021/12/12 11:26:21;;;;;;;25.17;14.80;;;;;;;4.11;100.00;100205.91;1709564;83;21099;-62
2021/12/12 11:28:52;;;;;;;27.45;15.05;;;;;;;4.09;100.00;100202.58;1723382;83;21071;-63
2021/12/12 11:31:24;;;;;;;21.23;14.53;;;;;;;4.11;100.00;100199.97;1749352;82;21510;-62
2021/12/12 11:33:53;;;;;;;24.25;14.13;;;;;;;4.15;100.00;100197.66;1753161;82;21522;-62
2021/12/12 11:36:27;;;;;;;24.63;14.38;;;;;;;4.17;100.00;100190.20;1753273;82;21055;-62
2021/12/12 11:39:24;;;;;;;32.50;15.23;;;;;;;4.21;100.00;100184.16;1739425;82;21031;-62
2021/12/12 11:41:59;;;;;;;21.17;13.58;;;;;;;4.22;100.00;100190.34;1722684;83;21098;-62
2021/12/12 11:44:42;;;;;;;23.62;14.47;;;;;;;4.18;100.00;100192.66;1721943;83;21541;-62
2021/12/12 11:47:26;;;;;;;23.55;13.80;;;;;;;4.18;100.00;100179.18;1723084;83;21098;-62
2021/12/12 11:50:07;;;;;;;22.87;13.60;;;;;;;4.16;100.00;100189.37;1740471;82;21062;-62
2021/12/12 11:52:59;;;;;;;27.52;14.05;;;;;;;4.13;100.00;100183.08;1743536;82;21518;-62
2021/12/12 11:55:46;;;;;;;20.45;12.10;;;;;;;4.07;100.00;100182.61;1739145;82;20981;-62
2021/12/12 11:58:37;;;;;;;25.85;14.70;;;;;;;4.07;100.00;100193.39;1723951;82;21541;-63
2021/12/12 12:01:32;;;;;;;24.35;15.13;;;;;;;4.08;100.00;100188.80;1710002;84;21003;-62
2021/12/12 12:04:33;;;;;;;31.75;19.25;;;;;;;4.09;100.00;100185.90;1710110;84;21011;-63
2021/12/12 12:07:14;;;;;;;30.08;18.82;;;;;;;4.10;100.00;100184.03;1613857;88;21097;-62
2021/12/12 12:10:08;;;;;;;27.82;16.97;;;;;;;4.09;100.00;100182.38;1734663;82;20933;-62